Time;durP1;ratioP1;P1;durP2;ratioP2;P2;SDS_P1;SDS_P2;PMS_P1;PMS_P2;Temp;Humidity;BMP_temperature;BMP_pressure;BME280_temperature;BME280_humidity;BME280_pressure;Samples;Min_cycle;Max_cycle;Signal;HPM_P1;HPM_P2
2022/06/20 00:00:59;;;;;;;1.25;0.10;;;20.10;55.60;;;;;;5114963;28;20043;-68
2022/06/20 00:03:28;;;;;;;1.02;0.10;;;20.00;55.60;;;;;;5113662;28;20115;-68
2022/06/20 00:05:54;;;;;;;1.97;0.20;;;20.00;55.60;;;;;;5114887;28;20064;-67
2022/06/20 00:08:20;;;;;;;0.85;0.10;;;20.00;55.60;;;;;;5114850;28;20304;-68
2022/06/20 00:10:51;;;;;;;2.65;0.40;;;20.00;55.70;;;;;;5113697;28;20436;-68
2022/06/20 00:13:22;;;;;;;1.20;0.20;;;20.00;55.60;;;;;;5114064;28;20050;-67
2022/06/20 00:15:50;;;;;;;0.98;0.10;;;20.00;55.60;;;;;;5113439;28;20071;-67
2022/06/20 00:18:16;;;;;;;1.00;0.65;;;20.00;55.60;;;;;;5113609;28;20067;-68
2022/06/20 00:20:42;;;;;;;1.15;0.20;;;20.00;55.60;;;;;;5113327;28;20043;-68
2022/06/20 00:23:08;;;;;;;1.42;0.10;;;20.00;55.60;;;;;;5113508;28;20054;-68
2022/06/20 00:25:35;;;;;;;1.08;0.20;;;20.00;55.60;;;;;;5113237;28;20040;-67
2022/06/20 00:28:01;;;;;;;0.45;0.10;;;20.00;55.60;;;;;;5114422;28;20036;-67
2022/06/20 00:30:27;;;;;;;2.60;0.20;;;20.00;55.60;;;;;;5114070;28;20055;-68
2022/06/20 00:32:53;;;;;;;0.50;0.20;;;20.00;55.70;;;;;;5113010;28;20044;-68
2022/06/20 00:35:19;;;;;;;0.63;0.10;;;19.90;55.60;;;;;;5113033;28;20035;-67
2022/06/20 00:37:45;;;;;;;0.98;0.25;;;20.00;55.70;;;;;;5113584;28;20089;-68
2022/06/20 00:40:36;;;;;;;1.05;0.20;;;19.90;55.60;;;;;;5112774;28;20040;-68
2022/06/20 00:43:04;;;;;;;1.75;0.10;;;19.90;55.70;;;;;;5114010;28;20055;-68
2022/06/20 00:45:35;;;;;;;1.52;0.20;;;19.90;55.70;;;;;;5114325;28;20542;-67
2022/06/20 00:48:06;;;;;;;0.80;0.10;;;20.00;55.80;;;;;;5113068;28;20039;-68
2022/06/20 00:50:33;;;;;;;1.58;0.20;;;19.90;56.50;;;;;;5114111;28;20050;-68
2022/06/20 00:53:12;;;;;;;1.10;0.20;;;20.00;55.80;;;;;;5112900;28;20036;-68
2022/06/20 00:55:45;;;;;;;2.15;0.85;;;20.00;55.80;;;;;;5113967;27;20399;-68
2022/06/20 00:58:36;;;;;;;1.10;0.10;;;19.90;55.80;;;;;;5112492;28;20039;-68
2022/06/20 01:01:02;;;;;;;0.98;0.10;;;20.00;55.80;;;;;;5112776;28;20492;-67
2022/06/20 01:03:39;;;;;;;0.75;0.10;;;19.90;55.80;;;;;;5112492;28;20627;-67
2022/06/20 01:06:10;;;;;;;0.75;0.10;;;19.90;55.80;;;;;;5112412;28;20039;-67
2022/06/20 01:08:45;;;;;;;1.85;0.10;;;19.90;55.80;;;;;;5113626;28;20102;-67
2022/06/20 01:11:34;;;;;;;0.63;0.10;;;19.90;55.90;;;;;;5112461;28;20058;-67
2022/06/20 01:13:59;;;;;;;1.25;0.30;;;19.90;55.80;;;;;;5112424;28;20429;-68
2022/06/20 01:16:30;;;;;;;2.15;0.10;;;19.90;55.80;;;;;;5112258;28;20036;-67
2022/06/20 01:19:01;;;;;;;0.65;0.10;;;19.90;55.90;;;;;;5092922;28;20174;-67
2022/06/20 01:21:31;;;;;;;1.73;0.20;;;19.90;55.90;;;;;;5091720;28;20491;-67
2022/06/20 01:29:24;;;;;;;0.98;0.10;;;19.90;55.90;;;;;;5130276;27;20756;-67
2022/06/20 01:31:53;;;;;;;1.02;0.10;;;19.80;55.90;;;;;;5129325;27;20035;-67
2022/06/20 01:34:20;;;;;;;1.48;0.20;;;19.80;55.90;;;;;;5129079;28;20399;-68
2022/06/20 01:37:34;;;;;;;1.45;0.30;;;19.90;55.90;;;;;;5129024;27;20716;-68
2022/06/20 01:39:51;;;;;;;1.15;0.10;;;19.80;55.90;;;;;;5128890;28;20054;-67
2022/06/20 01:42:18;;;;;;;0.55;0.10;;;19.80;55.90;;;;;;5129110;28;20051;-67
2022/06/20 01:44:47;;;;;;;1.35;0.20;;;19.80;56.00;;;;;;5128728;28;20658;-67
2022/06/20 01:47:13;;;;;;;1.35;0.10;;;19.80;56.00;;;;;;5129918;27;20054;-67
2022/06/20 01:49:41;;;;;;;2.67;0.20;;;19.80;56.00;;;;;;5128873;28;20036;-67
2022/06/20 01:52:41;;;;;;;0.65;0.10;;;19.80;56.00;;;;;;5128955;28;20129;-68
2022/06/20 01:55:14;;;;;;;1.15;0.10;;;19.80;56.00;;;;;;5128635;28;20049;-67
2022/06/20 01:57:43;;;;;;;1.73;0.20;;;19.80;56.10;;;;;;5129870;27;20074;-67
2022/06/20 02:00:15;;;;;;;0.60;0.20;;;19.80;56.10;;;;;;5129721;27;20031;-67
2022/06/20 02:02:46;;;;;;;0.65;0.20;;;19.80;56.10;;;;;;5128473;28;20630;-67
2022/06/20 02:05:17;;;;;;;2.30;0.20;;;19.80;56.10;;;;;;5128656;28;20088;-67
2022/06/20 02:07:43;;;;;;;1.15;0.10;;;19.70;56.10;;;;;;5129683;27;20487;-67
2022/06/20 02:10:13;;;;;;;1.33;0.10;;;19.70;56.20;;;;;;5128019;28;20051;-67
2022/06/20 02:12:39;;;;;;;0.80;0.10;;;19.70;56.10;;;;;;5129559;28;20132;-67
2022/06/20 02:15:06;;;;;;;1.02;0.13;;;19.80;56.20;;;;;;5129440;27;20483;-67
2022/06/20 02:17:36;;;;;;;0.95;0.10;;;19.70;56.20;;;;;;5128115;27;20048;-67
2022/06/20 02:20:05;;;;;;;1.88;0.10;;;19.70;56.20;;;;;;5128128;27;20043;-67
2022/06/20 02:22:33;;;;;;;2.35;0.20;;;19.70;56.20;;;;;;5129321;28;20040;-67
2022/06/20 02:25:06;;;;;;;1.75;0.10;;;19.70;56.20;;;;;;5129326;28;20039;-67
2022/06/20 02:27:38;;;;;;;0.70;0.20;;;19.70;56.20;;;;;;5129087;27;20085;-67
2022/06/20 02:30:06;;;;;;;1.17;0.30;;;19.70;56.20;;;;;;5129147;27;20476;-67
2022/06/20 02:32:37;;;;;;;1.00;0.10;;;19.70;56.20;;;;;;5128099;28;20088;-67
2022/06/20 02:35:06;;;;;;;0.88;0.10;;;19.70;56.30;;;;;;5127733;28;20052;-67
2022/06/20 02:37:34;;;;;;;1.50;0.20;;;19.70;56.30;;;;;;5127985;28;20053;-67
2022/06/20 02:40:03;;;;;;;1.92;0.22;;;19.60;56.20;;;;;;5118017;28;20047;-67
2022/06/20 02:45:11;;;;;;;1.25;0.10;;;19.70;56.40;;;;;;5130350;27;20407;-67
2022/06/20 02:47:44;;;;;;;1.63;0.10;;;19.60;56.30;;;;;;5129189;28;20051;-67
2022/06/20 02:50:14;;;;;;;1.75;0.20;;;19.70;56.40;;;;;;5128817;28;20558;-67
2022/06/20 02:52:46;;;;;;;0.20;0.03;;;19.70;56.40;;;;;;5130242;27;20043;-67
2022/06/20 02:55:14;;;;;;;2.25;0.73;;;19.60;56.40;;;;;;5129132;28;20050;-67
2022/06/20 02:57:45;;;;;;;0.60;0.20;;;19.60;56.30;;;;;;5128751;28;20126;-67
2022/06/20 03:00:17;;;;;;;0.95;0.10;;;19.60;56.40;;;;;;5128750;28;20035;-67
2022/06/20 03:02:48;;;;;;;1.50;0.43;;;19.70;56.40;;;;;;5130024;27;20043;-67
2022/06/20 03:05:15;;;;;;;1.15;0.13;;;19.60;56.40;;;;;;5128923;27;20078;-68
2022/06/20 03:07:41;;;;;;;1.98;0.30;;;19.60;56.40;;;;;;5129889;27;20087;-67
2022/06/20 03:12:57;;;;;;;0.90;0.10;;;19.60;56.40;;;;;;5090937;27;20913;-67
2022/06/20 03:15:26;;;;;;;0.70;0.10;;;19.60;56.40;;;;;;5088135;28;20082;-67
2022/06/20 03:17:53;;;;;;;0.60;0.10;;;19.60;56.40;;;;;;5088369;28;20040;-67
2022/06/20 03:20:21;;;;;;;0.65;0.20;;;19.60;56.40;;;;;;5088341;28;20423;-67
2022/06/20 03:22:52;;;;;;;1.25;0.25;;;19.60;56.40;;;;;;5087920;28;20056;-68
2022/06/20 03:25:20;;;;;;;0.80;0.20;;;19.60;56.40;;;;;;5087949;28;20072;-67
2022/06/20 03:27:46;;;;;;;0.50;0.10;;;19.60;56.40;;;;;;5089356;28;20040;-67
2022/06/20 03:30:32;;;;;;;1.02;0.17;;;19.60;56.50;;;;;;5088143;28;20571;-68
2022/06/20 03:33:00;;;;;;;1.58;0.17;;;19.60;56.50;;;;;;5087971;28;20080;-68
2022/06/20 03:35:30;;;;;;;0.90;0.25;;;19.50;56.40;;;;;;5089101;28;20028;-67
2022/06/20 03:37:58;;;;;;;0.65;0.20;;;19.60;56.50;;;;;;5088349;28;20091;-67
2022/06/20 03:40:25;;;;;;;0.32;0.10;;;19.50;56.40;;;;;;5087584;28;20074;-67
2022/06/20 03:42:51;;;;;;;0.70;0.10;;;19.50;56.50;;;;;;5088896;28;20044;-67
2022/06/20 03:45:18;;;;;;;0.60;0.10;;;19.50;56.50;;;;;;5088924;28;20040;-67
2022/06/20 03:47:51;;;;;;;1.17;0.10;;;19.50;56.50;;;;;;5087574;28;20112;-67
2022/06/20 03:50:32;;;;;;;1.48;0.10;;;19.50;56.50;;;;;;5087500;28;20044;-67
2022/06/20 03:53:08;;;;;;;;;;;19.50;56.50;;;;;;5087978;28;20048;-67
2022/06/20 03:55:43;;;;;;;0.90;0.22;;;19.40;56.50;;;;;;5088107;28;20324;-67
2022/06/20 04:01:03;;;;;;;1.13;0.10;;;19.50;56.50;;;;;;5109966;27;20105;-67
2022/06/20 04:03:42;;;;;;;1.63;0.10;;;19.50;56.50;;;;;;5108433;28;20051;-67
2022/06/20 04:11:51;;;;;;;1.00;0.10;;;19.50;56.50;;;;;;5088016;28;20048;-67
2022/06/20 04:14:24;;;;;;;0.80;0.20;;;19.40;56.50;;;;;;5088367;28;20040;-68
2022/06/20 04:16:55;;;;;;;0.47;0.10;;;19.40;56.50;;;;;;5089414;28;20114;-68
2022/06/20 04:22:15;;;;;;;1.10;0.20;;;19.40;56.60;;;;;;5130350;27;20402;-68
2022/06/20 04:24:51;;;;;;;1.27;0.20;;;19.40;56.50;;;;;;5129413;27;20085;-68
2022/06/20 04:33:11;;;;;;;1.00;0.13;;;19.40;56.50;;;;;;5130354;27;20354;-68
2022/06/20 04:35:43;;;;;;;1.23;0.20;;;19.50;56.50;;;;;;5128953;27;20046;-68
2022/06/20 04:38:19;;;;;;;0.77;0.10;;;19.40;56.40;;;;;;5129166;28;20395;-67
2022/06/20 04:40:58;;;;;;;1.40;0.10;;;19.40;56.40;;;;;;5128852;27;20047;-67
2022/06/20 04:43:37;;;;;;;0.73;0.10;;;19.50;56.50;;;;;;5128781;27;20035;-67
2022/06/20 04:46:17;;;;;;;0.90;0.20;;;19.50;56.50;;;;;;5128727;28;20035;-67
2022/06/20 04:48:47;;;;;;;;;;;19.40;56.40;;;;;;5130472;27;20040;-67
2022/06/20 04:51:18;;;;;;;1.50;0.20;;;19.50;56.50;;;;;;5129862;27;20022;-67
2022/06/20 04:53:46;;;;;;;1.75;0.25;;;19.40;56.40;;;;;;5111580;28;20039;-67
2022/06/20 04:56:26;;;;;;;0.63;0.28;;;19.50;56.40;;;;;;5127919;27;20043;-67
2022/06/20 04:58:58;;;;;;;0.82;0.15;;;19.40;56.40;;;;;;5129742;28;20556;-67
2022/06/20 05:01:26;;;;;;;0.63;0.13;;;19.50;56.50;;;;;;5128385;27;20115;-67
2022/06/20 05:04:07;;;;;;;0.80;0.10;;;19.40;56.40;;;;;;5129995;28;20036;-67
2022/06/20 05:06:36;;;;;;;1.38;0.30;;;19.40;56.40;;;;;;5129769;28;20080;-67
2022/06/20 05:09:14;;;;;;;1.30;0.30;;;19.40;56.40;;;;;;5129694;27;20032;-67
2022/06/20 05:11:46;;;;;;;0.43;0.10;;;19.40;56.30;;;;;;5128123;28;20051;-67
2022/06/20 05:14:20;;;;;;;0.80;0.20;;;19.40;56.30;;;;;;5128555;27;20139;-67
2022/06/20 05:16:50;;;;;;;0.95;0.20;;;19.50;56.30;;;;;;5128185;28;20039;-67
2022/06/20 05:19:24;;;;;;;1.63;0.20;;;19.50;56.30;;;;;;5128156;28;20597;-67
2022/06/20 05:21:55;;;;;;;0.40;0.20;;;19.50;56.30;;;;;;5129412;28;20043;-67
2022/06/20 05:24:24;;;;;;;1.00;0.10;;;19.40;56.20;;;;;;5128115;27;20157;-67
2022/06/20 05:26:52;;;;;;;0.82;0.38;;;19.40;56.20;;;;;;5129531;28;20032;-67
2022/06/20 05:32:05;;;;;;;1.55;0.10;;;19.40;56.20;;;;;;5135624;27;1153627;-66
2022/06/20 05:34:40;;;;;;;0.93;0.10;;;19.40;56.20;;;;;;5145913;27;20074;-66
2022/06/20 05:39:53;;;;;;;1.23;0.20;;;19.50;56.20;;;;;;5149846;27;1158871;-66
2022/06/20 05:42:20;;;;;;;1.35;0.10;;;19.50;56.20;;;;;;5131962;27;20470;-65
2022/06/20 05:44:46;;;;;;;0.88;0.10;;;19.60;56.20;;;;;;5148781;27;20034;-65
2022/06/20 05:47:19;;;;;;;1.40;0.10;;;19.60;56.10;;;;;;5150793;27;20038;-67
2022/06/20 05:49:52;;;;;;;2.50;0.20;;;19.60;56.10;;;;;;5132365;27;20047;-66
2022/06/20 05:52:22;;;;;;;0.57;0.10;;;19.60;56.00;;;;;;5149204;27;20046;-68
2022/06/20 05:54:57;;;;;;;1.70;0.20;;;19.60;55.90;;;;;;5170937;27;20064;-65
2022/06/20 05:57:26;;;;;;;0.75;0.20;;;19.60;55.80;;;;;;5152314;27;20034;-65
2022/06/20 06:00:01;;;;;;;1.35;0.20;;;19.70;55.80;;;;;;5151334;27;20034;-65
2022/06/20 06:02:39;;;;;;;1.20;0.15;;;19.70;55.70;;;;;;5148394;27;20125;-65
2022/06/20 06:05:17;;;;;;;1.58;0.13;;;19.70;55.70;;;;;;5134294;27;20382;-65
2022/06/20 06:13:13;;;;;;;3.05;0.10;;;19.80;55.70;;;;;;5081437;27;20413;-65
2022/06/20 06:18:18;;;;;;;0.68;0.20;;;19.80;55.60;;;;;;5126436;27;20760;-65
2022/06/20 06:20:47;;;;;;;2.40;0.40;;;19.80;56.30;;;;;;5096067;28;20047;-70
2022/06/20 06:23:14;;;;;;;1.25;0.20;;;19.90;55.50;;;;;;5095186;28;20391;-65
2022/06/20 06:25:43;;;;;;;2.15;0.35;;;19.90;56.30;;;;;;5102335;28;20624;-65
2022/06/20 06:28:17;;;;;;;1.10;0.30;;;19.90;55.50;;;;;;5095309;28;20043;-69
2022/06/20 06:30:51;;;;;;;2.97;0.30;;;19.90;55.40;;;;;;5107554;28;20086;-65
2022/06/20 06:36:09;;;;;;;2.05;0.30;;;19.90;55.40;;;;;;5113578;27;20412;-64
2022/06/20 06:41:25;;;;;;;2.58;0.50;;;19.90;55.20;;;;;;5066844;27;20410;-67
2022/06/20 06:43:51;;;;;;;5.80;0.88;;;20.00;55.30;;;;;;5036532;28;20128;-65
2022/06/20 06:46:25;;;;;;;4.10;0.50;;;20.00;55.30;;;;;;5031202;28;20448;-67
2022/06/20 06:49:30;;;;;;;2.30;0.40;;;20.00;55.20;;;;;;5051646;28;20039;-64
2022/06/20 06:57:32;;;;;;;2.13;1.00;;;20.00;55.70;;;;;;5014391;27;3928737;-65
2022/06/20 07:02:52;;;;;;;3.72;0.40;;;20.10;56.20;;;;;;5109197;27;21077;-67
2022/06/20 07:05:34;;;;;;;2.67;0.50;;;20.10;56.30;;;;;;5098017;28;20438;-68
2022/06/20 07:08:14;;;;;;;2.70;0.60;;;20.20;56.40;;;;;;5088365;28;20046;-67
2022/06/20 07:16:41;;;;;;;2.65;0.50;;;20.30;56.50;;;;;;5068186;27;20853;-66
2022/06/20 07:19:08;;;;;;;2.35;0.77;;;20.30;57.10;;;;;;5056883;28;20048;-65
2022/06/20 07:21:37;;;;;;;3.67;0.75;;;20.40;55.50;;;;;;5070038;28;20044;-66
2022/06/20 07:24:08;;;;;;;2.55;0.75;;;20.40;55.30;;;;;;5053091;28;20040;-66
2022/06/20 07:26:59;;;;;;;3.67;0.68;;;20.40;55.00;;;;;;5053170;28;20040;-68
2022/06/20 07:29:37;;;;;;;2.72;0.88;;;20.40;55.10;;;;;;5045532;28;20186;-67
2022/06/20 07:32:10;;;;;;;5.18;1.00;;;20.50;55.40;;;;;;5050860;28;20728;-67
2022/06/20 07:37:29;;;;;;;6.13;0.93;;;20.50;55.40;;;;;;5099634;27;20940;-70
2022/06/20 07:40:18;;;;;;;3.13;0.63;;;20.60;55.50;;;;;;5094510;28;20134;-67
2022/06/20 07:48:12;;;;;;;5.57;1.30;;;20.60;55.90;;;;;;5120806;27;1166290;-66
2022/06/20 07:50:50;;;;;;;4.55;0.40;;;20.60;55.30;;;;;;5114882;27;20700;-66
2022/06/20 07:56:00;;;;;;;4.13;0.90;;;20.70;55.00;;;;;;5056047;28;20870;-70
2022/06/20 07:58:31;;;;;;;4.13;1.08;;;20.70;55.40;;;;;;5068014;28;20057;-66
2022/06/20 08:01:04;;;;;;;5.15;1.00;;;20.80;55.50;;;;;;5050357;28;21206;-68
2022/06/20 08:06:32;;;;;;;6.68;0.90;;;20.80;55.50;;;;;;5059975;27;20492;-65
2022/06/20 08:09:07;;;;;;;4.88;0.98;;;20.80;55.80;;;;;;5051342;28;20145;-63
2022/06/20 08:11:43;;;;;;;4.55;1.02;;;20.80;55.40;;;;;;5050295;28;20040;-63
2022/06/20 08:17:13;;;;;;;6.25;0.90;;;20.90;54.60;;;;;;5108915;27;1174769;-65
2022/06/20 08:19:42;;;;;;;1.52;0.65;;;20.90;54.50;;;;;;5133864;27;20141;-64
2022/06/20 08:27:46;;;;;;;6.53;0.70;;;21.20;54.40;;;;;;5111197;27;20389;-67
2022/06/20 08:30:19;;;;;;;6.57;0.82;;;21.20;54.50;;;;;;5131958;27;20055;-67
2022/06/20 08:35:33;;;;;;;4.40;0.73;;;21.30;54.70;;;;;;5070510;28;20444;-67
2022/06/20 08:38:05;;;;;;;8.02;1.42;;;21.30;54.70;;;;;;5047871;28;20041;-67
2022/06/20 08:49:23;;;;;;;4.78;0.65;;;21.30;54.70;;;;;;5054401;28;20439;-67
2022/06/20 08:52:28;;;;;;;4.47;0.93;;;21.70;52.80;;;;;;5053691;28;20045;-65
2022/06/20 09:00:31;;;;;;;3.88;0.55;;;21.80;52.10;;;;;;5088760;27;20464;-66
2022/06/20 09:06:16;;;;;;;4.22;1.00;;;22.10;50.80;;;;;;5085242;27;20519;-66
2022/06/20 09:17:33;;;;;;;2.47;0.65;;;23.30;47.70;;;;;;5088519;27;20457;-66
2022/06/20 09:34:43;;;;;;;2.63;0.50;;;24.00;45.80;;;;;;5116718;27;20380;-67
2022/06/20 09:54:16;;;;;;;6.72;0.63;;;23.70;46.60;;;;;;5128655;27;1155677;-68
2022/06/20 09:59:32;;;;;;;6.40;1.13;;;23.70;46.60;;;;;;5090316;27;1183704;-67
2022/06/20 10:04:53;;;;;;;2.33;0.47;;;23.70;46.50;;;;;;5108594;27;20480;-65
2022/06/20 10:21:08;;;;;;;3.85;0.88;;;23.70;46.40;;;;;;5055556;28;20670;-65
2022/06/20 10:26:25;;;;;;;3.13;0.38;;;23.60;46.10;;;;;;5068117;27;20390;-65
2022/06/20 10:29:20;;;;;;;4.55;0.40;;;23.50;45.40;;;;;;5052293;28;20052;-64
2022/06/20 10:40:29;;;;;;;2.40;0.30;;;23.60;44.40;;;;;;5086136;27;20411;-66
2022/06/20 10:43:07;;;;;;;5.90;0.60;;;23.50;44.70;;;;;;5077018;28;20043;-66
2022/06/20 10:45:58;;;;;;;2.78;0.45;;;23.40;44.70;;;;;;5090621;28;20051;-65
2022/06/20 10:48:50;;;;;;;3.35;0.43;;;23.40;44.90;;;;;;5085152;28;20047;-65
2022/06/20 11:00:06;;;;;;;4.32;0.35;;;23.30;45.30;;;;;;5076802;27;20403;-64
2022/06/20 11:05:27;;;;;;;8.25;0.50;;;23.40;45.90;;;;;;5085586;27;20459;-65
2022/06/20 11:08:29;;;;;;;6.25;0.50;;;23.40;45.90;;;;;;5085948;28;20051;-66
2022/06/20 11:13:57;;;;;;;4.07;0.40;;;23.40;46.10;;;;;;5073128;27;21182;-67
2022/06/20 11:16:42;;;;;;;3.88;0.60;;;23.40;46.40;;;;;;5048397;28;20044;-67
2022/06/20 11:19:26;;;;;;;5.05;0.98;;;23.30;46.40;;;;;;5055499;28;20044;-67
2022/06/20 11:27:53;;;;;;;4.30;0.40;;;23.30;46.70;;;;;;5112495;27;1169479;-67
2022/06/20 11:30:24;;;;;;;3.42;0.50;;;23.30;46.60;;;;;;5110715;27;21293;-67
2022/06/20 11:36:11;;;;;;;3.20;0.30;;;23.30;46.80;;;;;;5102551;27;20497;-67
2022/06/20 11:41:46;;;;;;;1.35;0.38;;;23.30;46.80;;;;;;5103059;27;21411;-68
2022/06/20 11:44:40;;;;;;;2.85;0.40;;;23.40;47.00;;;;;;5095426;27;20056;-72
2022/06/20 11:50:31;;;;;;;4.78;0.98;;;23.30;47.00;;;;;;5073534;27;20490;-66
2022/06/20 11:53:26;;;;;;;4.28;0.52;;;23.20;47.10;;;;;;5089323;28;20074;-68
2022/06/20 11:56:00;;;;;;;7.38;0.40;;;23.20;47.10;;;;;;5051743;28;20049;-69
2022/06/20 12:01:16;;;;;;;2.95;0.32;;;23.20;47.20;;;;;;5095463;27;20486;-64
2022/06/20 12:03:55;;;;;;;2.63;0.20;;;23.20;47.40;;;;;;5089581;28;20052;-65
2022/06/20 12:06:30;;;;;;;2.67;0.38;;;23.20;47.20;;;;;;5088253;28;20051;-65
2022/06/20 12:09:04;;;;;;;3.28;0.20;;;23.20;47.00;;;;;;5093811;28;20097;-67
2022/06/20 12:25:41;;;;;;;4.18;0.47;;;23.30;47.10;;;;;;5072206;28;20044;-65
2022/06/20 12:28:18;;;;;;;5.13;0.63;;;23.40;47.10;;;;;;5073395;28;20121;-66
2022/06/20 12:30:54;;;;;;;3.97;0.45;;;23.40;47.00;;;;;;5079622;28;20048;-67
2022/06/20 12:33:21;;;;;;;5.07;0.50;;;23.40;47.20;;;;;;5072971;28;20433;-66
2022/06/20 12:35:54;;;;;;;7.32;0.60;;;23.40;47.30;;;;;;5073221;28;20496;-67
2022/06/20 12:38:30;;;;;;;6.20;0.38;;;23.40;47.60;;;;;;5071987;28;20066;-67
2022/06/20 12:41:03;;;;;;;5.82;0.43;;;23.40;47.90;;;;;;5068987;28;20044;-67
2022/06/20 12:55:10;;;;;;;3.10;0.30;;;23.40;48.30;;;;;;5104197;27;1155934;-70
2022/06/20 12:58:08;;;;;;;2.20;0.30;;;23.40;48.50;;;;;;5109882;27;20047;-70
2022/06/20 13:03:42;;;;;;;3.10;0.30;;;23.50;48.60;;;;;;5105937;27;1180168;-67
2022/06/20 13:15:01;;;;;;;3.33;0.60;;;23.40;48.20;;;;;;5094019;27;20132;-67
2022/06/20 13:17:54;;;;;;;2.65;0.40;;;23.40;48.10;;;;;;5056106;28;20048;-66
2022/06/20 13:20:44;;;;;;;4.78;0.57;;;23.40;48.00;;;;;;5051603;28;20093;-67
2022/06/20 13:23:50;;;;;;;5.22;0.52;;;23.30;47.90;;;;;;5064512;28;20123;-67
2022/06/20 13:31:58;;;;;;;3.70;0.73;;;23.40;47.80;;;;;;5139860;27;1172309;-65
2022/06/20 13:34:51;;;;;;;3.95;0.40;;;23.30;47.30;;;;;;5144720;27;20080;-68
2022/06/20 13:37:45;;;;;;;3.90;0.40;;;23.30;47.00;;;;;;5137722;27;20046;-67
2022/06/20 13:40:20;;;;;;;4.03;0.60;;;23.30;46.90;;;;;;5143963;27;20037;-68
2022/06/20 13:45:34;;;;;;;4.85;0.85;;;23.30;47.50;;;;;;5081038;27;20364;-69
2022/06/20 13:48:15;;;;;;;2.55;0.30;;;23.30;48.20;;;;;;5078943;28;20040;-69
2022/06/20 13:51:07;;;;;;;1.92;0.40;;;23.20;48.50;;;;;;5105364;28;20048;-69
2022/06/20 13:54:12;;;;;;;3.05;0.40;;;23.30;48.90;;;;;;5078443;28;20040;-68
2022/06/20 13:56:51;;;;;;;4.10;0.63;;;23.20;49.20;;;;;;5078403;28;20048;-68
2022/06/20 13:59:28;;;;;;;4.32;0.32;;;23.30;49.40;;;;;;5079365;28;20052;-67
2022/06/20 14:01:58;;;;;;;1.48;0.35;;;23.20;49.80;;;;;;5079464;28;20098;-68
2022/06/20 14:04:26;;;;;;;1.13;0.30;;;23.20;50.70;;;;;;5088930;28;20063;-70
2022/06/20 14:09:46;;;;;;;4.18;0.30;;;23.30;50.10;;;;;;5121816;27;20055;-69
2022/06/20 14:12:25;;;;;;;1.83;0.38;;;23.40;50.20;;;;;;5114888;28;20063;-68
2022/06/20 14:14:54;;;;;;;1.73;0.70;;;23.40;50.00;;;;;;5106119;28;20050;-65
2022/06/20 14:17:23;;;;;;;7.47;0.73;;;23.40;49.70;;;;;;5119046;28;20096;-67
2022/06/20 14:19:57;;;;;;;5.50;0.50;;;23.40;49.30;;;;;;5110481;28;20482;-66
2022/06/20 14:22:34;;;;;;;4.20;0.32;;;23.30;48.70;;;;;;5113794;28;20046;-66
2022/06/20 14:25:06;;;;;;;3.15;0.43;;;23.30;48.40;;;;;;5122947;27;20065;-67
2022/06/20 14:27:32;;;;;;;2.35;0.35;;;23.30;48.10;;;;;;5117130;27;20054;-67
2022/06/20 14:30:06;;;;;;;4.63;0.70;;;23.30;47.80;;;;;;5122554;28;20040;-67
2022/06/20 14:32:44;;;;;;;4.07;0.30;;;23.30;47.30;;;;;;5121667;28;20040;-66
2022/06/20 14:38:11;;;;;;;4.18;0.30;;;23.30;46.90;;;;;;5103903;27;20415;-66
2022/06/20 14:51:38;;;;;;;2.88;0.40;;;23.40;45.20;;;;;;5026437;27;4110439;-68
2022/06/20 14:54:16;;;;;;;2.90;0.47;;;23.40;45.10;;;;;;5134085;27;20034;-67
2022/06/20 15:02:28;;;;;;;5.85;0.40;;;23.40;45.00;;;;;;5083561;28;20360;-66
2022/06/20 15:05:33;;;;;;;2.13;0.20;;;23.50;44.70;;;;;;5067167;28;20036;-67
2022/06/20 15:08:14;;;;;;;3.63;0.52;;;23.50;44.70;;;;;;5084540;28;20051;-67
2022/06/20 15:10:53;;;;;;;2.83;0.40;;;23.40;44.70;;;;;;5085238;28;20616;-67
2022/06/20 15:13:43;;;;;;;1.88;0.20;;;23.40;44.70;;;;;;5082206;28;20102;-67
2022/06/20 15:16:34;;;;;;;1.88;0.25;;;23.40;44.80;;;;;;5083662;28;20089;-67
2022/06/20 15:19:26;;;;;;;2.75;0.30;;;23.40;44.80;;;;;;5086628;28;20123;-67
2022/06/20 15:21:59;;;;;;;3.65;0.40;;;23.40;44.90;;;;;;5084146;28;20131;-67
2022/06/20 15:24:36;;;;;;;1.00;0.30;;;23.30;45.00;;;;;;5083875;28;20047;-67
2022/06/20 15:27:38;;;;;;;1.10;0.20;;;23.20;45.10;;;;;;5083859;28;20365;-67
2022/06/20 15:30:21;;;;;;;4.13;0.73;;;23.20;45.20;;;;;;5083878;28;20044;-67
2022/06/20 15:32:49;;;;;;;1.75;0.30;;;23.20;45.20;;;;;;5085009;28;20055;-67
2022/06/20 15:35:53;;;;;;;1.88;0.40;;;23.20;45.30;;;;;;5086204;28;20497;-67
2022/06/20 15:38:26;;;;;;;1.65;0.43;;;23.20;46.10;;;;;;5085624;28;20043;-67
2022/06/20 15:41:01;;;;;;;0.50;0.20;;;23.20;45.30;;;;;;5084187;28;20080;-67
2022/06/20 15:43:33;;;;;;;0.88;0.20;;;23.20;45.30;;;;;;5082535;28;20082;-70
2022/06/20 15:46:08;;;;;;;1.33;0.20;;;23.20;45.40;;;;;;5085099;28;20372;-67
2022/06/20 15:48:39;;;;;;;2.53;0.25;;;23.20;45.40;;;;;;5084753;28;20082;-67
2022/06/20 15:51:25;;;;;;;1.38;0.30;;;23.20;45.40;;;;;;5085269;28;20051;-67
2022/06/20 15:57:21;;;;;;;0.85;0.30;;;23.10;45.50;;;;;;5086583;27;20425;-66
2022/06/20 16:03:30;;;;;;;2.00;0.30;;;23.10;45.50;;;;;;5085730;27;20889;-66
2022/06/20 16:06:01;;;;;;;1.05;0.40;;;23.10;45.60;;;;;;5070229;28;20048;-66
2022/06/20 16:11:28;;;;;;;1.17;0.25;;;23.10;45.50;;;;;;5127648;27;20406;-66
2022/06/20 16:13:55;;;;;;;0.50;0.20;;;23.00;45.70;;;;;;5126062;28;20482;-66
2022/06/20 16:16:24;;;;;;;2.15;0.20;;;23.00;45.70;;;;;;5126409;28;20046;-66
2022/06/20 16:18:56;;;;;;;1.10;0.20;;;23.00;45.70;;;;;;5127273;28;20039;-67
2022/06/20 16:21:25;;;;;;;2.85;0.30;;;22.90;45.80;;;;;;5127345;28;20062;-66
2022/06/20 16:23:55;;;;;;;1.00;0.30;;;23.00;45.80;;;;;;5127149;27;20387;-65
2022/06/20 16:34:54;;;;;;;1.75;0.30;;;23.00;45.80;;;;;;5127288;27;20386;-66
2022/06/20 16:37:29;;;;;;;1.02;0.22;;;22.90;45.90;;;;;;5126363;28;20475;-66
2022/06/20 16:39:59;;;;;;;1.52;0.40;;;22.90;45.90;;;;;;5127657;28;20043;-66
2022/06/20 16:42:47;;;;;;;0.75;0.20;;;22.90;46.00;;;;;;5131340;27;20085;-67
2022/06/20 16:45:39;;;;;;;0.75;0.20;;;22.80;46.00;;;;;;5125843;28;20121;-66
2022/06/20 16:53:55;;;;;;;1.35;0.20;;;22.80;46.00;;;;;;5086957;27;20352;-67
2022/06/20 16:56:24;;;;;;;0.90;0.20;;;22.80;46.20;;;;;;5086546;28;20072;-66
2022/06/20 16:59:06;;;;;;;0.57;0.20;;;22.70;46.20;;;;;;5087523;28;20394;-66
2022/06/20 17:01:52;;;;;;;0.93;0.28;;;22.70;46.30;;;;;;5086567;28;20094;-66
2022/06/20 17:04:47;;;;;;;0.77;0.20;;;22.60;46.30;;;;;;5086016;28;20051;-66
2022/06/20 17:13:13;;;;;;;1.50;0.30;;;22.50;46.70;;;;;;5087010;28;20437;-66
2022/06/20 17:16:18;;;;;;;0.60;0.35;;;22.50;46.80;;;;;;5084094;28;20059;-66
2022/06/20 17:30:23;;;;;;;1.98;0.35;;;22.30;47.20;;;;;;5087364;28;20892;-66
2022/06/20 17:32:57;;;;;;;1.75;0.68;;;22.20;47.20;;;;;;5085823;28;20472;-66
2022/06/20 17:35:37;;;;;;;0.60;0.20;;;22.20;47.40;;;;;;5085813;28;20128;-66
2022/06/20 17:46:42;;;;;;;3.25;0.73;;;22.20;47.40;;;;;;5128020;27;20181;-66
2022/06/20 18:00:39;;;;;;;1.77;0.20;;;22.10;47.70;;;;;;5151577;27;1168837;-66
2022/06/20 18:03:30;;;;;;;1.42;0.30;;;22.00;47.90;;;;;;5151355;27;20469;-66
2022/06/20 18:05:59;;;;;;;;;;;21.90;47.90;;;;;;5151687;27;20536;-66
2022/06/20 18:08:30;;;;;;;1.88;0.30;;;22.00;48.00;;;;;;5168832;27;19914;-66
2022/06/20 18:13:49;;;;;;;1.15;0.30;;;21.90;48.10;;;;;;5127055;27;20456;-66
2022/06/20 18:19:08;;;;;;;0.77;0.40;;;21.90;48.40;;;;;;5107389;27;20363;-66
2022/06/20 18:24:42;;;;;;;1.13;0.32;;;21.90;48.50;;;;;;5107914;27;20657;-66
2022/06/20 18:29:48;;;;;;;1.95;0.30;;;21.80;48.60;;;;;;5087012;27;20359;-66
2022/06/20 18:32:18;;;;;;;0.80;0.25;;;21.80;48.80;;;;;;5085986;28;20468;-66
2022/06/20 18:34:47;;;;;;;0.70;0.22;;;21.80;49.00;;;;;;5085241;28;20048;-66
2022/06/20 18:37:16;;;;;;;1.00;0.70;;;21.80;49.10;;;;;;5085224;28;20048;-66
2022/06/20 18:42:56;;;;;;;2.08;0.45;;;21.80;49.20;;;;;;5128572;27;20411;-66
2022/06/20 18:45:41;;;;;;;2.40;0.45;;;21.70;49.40;;;;;;5116386;28;20039;-66
2022/06/20 18:54:22;;;;;;;1.58;0.30;;;21.70;49.60;;;;;;5086803;27;20431;-66
2022/06/20 19:10:39;;;;;;;1.10;0.20;;;21.60;50.00;;;;;;5128056;27;20419;-66
2022/06/20 19:22:31;;;;;;;1.33;0.25;;;21.50;50.20;;;;;;5108455;27;20155;-66
2022/06/20 19:25:05;;;;;;;1.38;0.20;;;21.50;50.20;;;;;;5106349;28;20055;-66
2022/06/20 19:27:42;;;;;;;1.20;0.22;;;21.50;50.30;;;;;;5105991;28;20650;-66
2022/06/20 19:30:13;;;;;;;1.05;0.30;;;21.50;50.40;;;;;;5105810;28;20036;-66
2022/06/20 19:32:44;;;;;;;1.05;0.20;;;21.40;50.30;;;;;;5106448;28;20048;-66
2022/06/20 19:35:16;;;;;;;1.00;0.30;;;21.40;50.40;;;;;;5105593;28;20502;-66
2022/06/20 19:37:43;;;;;;;2.05;0.38;;;21.40;50.40;;;;;;5105580;28;20055;-66
2022/06/20 19:40:20;;;;;;;0.85;0.20;;;21.40;50.50;;;;;;5107011;28;20044;-66
2022/06/20 19:43:06;;;;;;;2.58;0.22;;;21.40;50.50;;;;;;5108048;28;20044;-66
2022/06/20 19:48:36;;;;;;;1.58;0.20;;;21.30;50.60;;;;;;5087150;28;20425;-66